Arbon, Idaho
Current Conditions -  °F | °C
As of 6:53 PM on Tuesday 21 Oct 2014 (Local Time) from KPIH Reporting Station
Broken Clouds Broken Clouds  
Wind Chill: 42°   Ceiling: 4800
Heat Index: 49°   Visibility: 10mi
Dew Point: 35°   Wind: 22mph
Humidity: 59%   Direction: 260°W
Pressure: 30.07"   Gusts: NA
Location:  42.46°N, 112.57°W
Report Text: KPIH 220053Z 26019KT 10SM BKN048 09/02 A3007 RMK AO2 SLP169 T00940017
Loading
Personal Weather Stations






























Interactive Weather Map
Tropical Storm Tracking
New forecast layout! Learn more

10-Day Weather Forecast

Advertisements
Track Severe Weather on mobile